sensor_id;sensor_type;location;lat;lon;timestamp;P1;durP1;ratioP1;P2;durP2;ratioP2
7703;SDS011;3894;49.700;10.770;2022-12-29T00:01:16;3.83;;;1.00;;
7703;SDS011;3894;49.700;10.770;2022-12-29T00:03:41;3.78;;;0.82;;
7703;SDS011;3894;49.700;10.770;2022-12-29T00:06:10;5.72;;;1.10;;
7703;SDS011;3894;49.700;10.770;2022-12-29T00:08:35;4.15;;;0.88;;
7703;SDS011;3894;49.700;10.770;2022-12-29T00:13:33;3.92;;;1.05;;
7703;SDS011;3894;49.700;10.770;2022-12-29T00:16:18;4.60;;;0.98;;
7703;SDS011;3894;49.700;10.770;2022-12-29T00:18:43;5.32;;;1.27;;
7703;SDS011;3894;49.700;10.770;2022-12-29T00:21:16;4.75;;;0.90;;
7703;SDS011;3894;49.700;10.770;2022-12-29T00:24:01;4.15;;;0.88;;
7703;SDS011;3894;49.700;10.770;2022-12-29T00:26:50;4.47;;;0.77;;
7703;SDS011;3894;49.700;10.770;2022-12-29T00:29:40;4.68;;;0.90;;
7703;SDS011;3894;49.700;10.770;2022-12-29T00:32:24;2.90;;;0.50;;
7703;SDS011;3894;49.700;10.770;2022-12-29T00:35:09;3.88;;;0.95;;
7703;SDS011;3894;49.700;10.770;2022-12-29T00:37:37;4.03;;;0.70;;
7703;SDS011;3894;49.700;10.770;2022-12-29T00:40:27;3.83;;;0.68;;
7703;SDS011;3894;49.700;10.770;2022-12-29T00:43:11;4.30;;;1.17;;
7703;SDS011;3894;49.700;10.770;2022-12-29T00:45:55;4.55;;;0.80;;
7703;SDS011;3894;49.700;10.770;2022-12-29T00:48:21;4.53;;;0.73;;
7703;SDS011;3894;49.700;10.770;2022-12-29T00:51:06;4.38;;;0.65;;
7703;SDS011;3894;49.700;10.770;2022-12-29T00:53:32;3.83;;;0.90;;
7703;SDS011;3894;49.700;10.770;2022-12-29T00:55:58;3.13;;;0.40;;
7703;SDS011;3894;49.700;10.770;2022-12-29T00:58:26;4.28;;;1.05;;
7703;SDS011;3894;49.700;10.770;2022-12-29T01:01:00;5.85;;;0.70;;
7703;SDS011;3894;49.700;10.770;2022-12-29T01:03:28;3.63;;;0.60;;
7703;SDS011;3894;49.700;10.770;2022-12-29T01:05:54;3.88;;;0.73;;
7703;SDS011;3894;49.700;10.770;2022-12-29T01:08:20;4.15;;;0.90;;
7703;SDS011;3894;49.700;10.770;2022-12-29T01:10:45;4.00;;;0.65;;
7703;SDS011;3894;49.700;10.770;2022-12-29T01:13:11;4.03;;;1.13;;
7703;SDS011;3894;49.700;10.770;2022-12-29T01:15:36;3.80;;;0.60;;
7703;SDS011;3894;49.700;10.770;2022-12-29T01:18:02;3.50;;;0.60;;
7703;SDS011;3894;49.700;10.770;2022-12-29T01:20:28;3.90;;;0.75;;
7703;SDS011;3894;49.700;10.770;2022-12-29T01:22:53;4.32;;;0.77;;
7703;SDS011;3894;49.700;10.770;2022-12-29T01:25:19;3.83;;;0.57;;
7703;SDS011;3894;49.700;10.770;2022-12-29T01:27:45;2.70;;;0.70;;
7703;SDS011;3894;49.700;10.770;2022-12-29T01:30:11;4.60;;;0.70;;
7703;SDS011;3894;49.700;10.770;2022-12-29T01:32:37;3.20;;;1.20;;
7703;SDS011;3894;49.700;10.770;2022-12-29T01:35:02;6.63;;;0.60;;
7703;SDS011;3894;49.700;10.770;2022-12-29T01:37:28;3.67;;;0.50;;
7703;SDS011;3894;49.700;10.770;2022-12-29T01:39:54;4.07;;;0.68;;
7703;SDS011;3894;49.700;10.770;2022-12-29T01:42:22;6.60;;;0.70;;
7703;SDS011;3894;49.700;10.770;2022-12-29T01:45:08;3.05;;;0.75;;
7703;SDS011;3894;49.700;10.770;2022-12-29T01:47:37;3.67;;;0.60;;
7703;SDS011;3894;49.700;10.770;2022-12-29T01:52:42;4.13;;;0.75;;
7703;SDS011;3894;49.700;10.770;2022-12-29T01:55:13;2.90;;;0.68;;
7703;SDS011;3894;49.700;10.770;2022-12-29T01:57:40;4.07;;;0.85;;
7703;SDS011;3894;49.700;10.770;2022-12-29T02:00:11;3.33;;;1.15;;
7703;SDS011;3894;49.700;10.770;2022-12-29T02:02:38;3.40;;;0.55;;
7703;SDS011;3894;49.700;10.770;2022-12-29T02:05:10;4.57;;;1.08;;
7703;SDS011;3894;49.700;10.770;2022-12-29T02:07:42;3.63;;;0.60;;
7703;SDS011;3894;49.700;10.770;2022-12-29T02:10:09;2.97;;;0.65;;
7703;SDS011;3894;49.700;10.770;2022-12-29T02:12:34;3.05;;;0.68;;
7703;SDS011;3894;49.700;10.770;2022-12-29T02:15:00;3.20;;;0.93;;
7703;SDS011;3894;49.700;10.770;2022-12-29T02:20:25;3.83;;;0.45;;
7703;SDS011;3894;49.700;10.770;2022-12-29T02:36:40;3.15;;;0.32;;
7703;SDS011;3894;49.700;10.770;2022-12-29T02:39:28;2.85;;;0.47;;
7703;SDS011;3894;49.700;10.770;2022-12-29T02:42:24;3.45;;;0.77;;
7703;SDS011;3894;49.700;10.770;2022-12-29T02:45:15;2.95;;;0.52;;
7703;SDS011;3894;49.700;10.770;2022-12-29T02:48:15;4.43;;;0.60;;
7703;SDS011;3894;49.700;10.770;2022-12-29T02:51:27;3.25;;;0.50;;
7703;SDS011;3894;49.700;10.770;2022-12-29T02:53:55;3.22;;;0.60;;
7703;SDS011;3894;49.700;10.770;2022-12-29T02:56:59;3.22;;;0.52;;
7703;SDS011;3894;49.700;10.770;2022-12-29T02:59:25;3.25;;;0.75;;
7703;SDS011;3894;49.700;10.770;2022-12-29T03:04:50;3.35;;;0.52;;
7703;SDS011;3894;49.700;10.770;2022-12-29T03:07:29;3.47;;;0.60;;
7703;SDS011;3894;49.700;10.770;2022-12-29T03:12:51;4.47;;;1.00;;
7703;SDS011;3894;49.700;10.770;2022-12-29T03:21:52;4.20;;;0.80;;
7703;SDS011;3894;49.700;10.770;2022-12-29T03:27:09;3.25;;;0.50;;
7703;SDS011;3894;49.700;10.770;2022-12-29T03:29:57;3.58;;;0.52;;
7703;SDS011;3894;49.700;10.770;2022-12-29T03:32:28;3.85;;;0.63;;
7703;SDS011;3894;49.700;10.770;2022-12-29T03:35:00;3.75;;;0.70;;
7703;SDS011;3894;49.700;10.770;2022-12-29T03:37:37;3.72;;;0.80;;
7703;SDS011;3894;49.700;10.770;2022-12-29T03:40:06;2.78;;;0.60;;
7703;SDS011;3894;49.700;10.770;2022-12-29T03:42:32;5.35;;;0.68;;
7703;SDS011;3894;49.700;10.770;2022-12-29T03:45:00;4.35;;;0.70;;
7703;SDS011;3894;49.700;10.770;2022-12-29T03:47:26;3.35;;;0.70;;
7703;SDS011;3894;49.700;10.770;2022-12-29T03:49:51;4.03;;;0.60;;
7703;SDS011;3894;49.700;10.770;2022-12-29T03:52:17;3.38;;;0.70;;
7703;SDS011;3894;49.700;10.770;2022-12-29T03:54:43;4.07;;;0.52;;
7703;SDS011;3894;49.700;10.770;2022-12-29T03:57:10;2.55;;;0.40;;
7703;SDS011;3894;49.700;10.770;2022-12-29T03:59:35;3.80;;;0.80;;
7703;SDS011;3894;49.700;10.770;2022-12-29T04:02:01;3.28;;;0.50;;
7703;SDS011;3894;49.700;10.770;2022-12-29T04:04:27;5.22;;;0.70;;
7703;SDS011;3894;49.700;10.770;2022-12-29T04:06:52;2.28;;;0.30;;
7703;SDS011;3894;49.700;10.770;2022-12-29T04:09:18;3.80;;;0.60;;
7703;SDS011;3894;49.700;10.770;2022-12-29T04:11:44;3.03;;;0.60;;
7703;SDS011;3894;49.700;10.770;2022-12-29T04:14:09;4.55;;;0.98;;
7703;SDS011;3894;49.700;10.770;2022-12-29T04:16:35;2.65;;;0.40;;
7703;SDS011;3894;49.700;10.770;2022-12-29T04:19:03;3.28;;;0.60;;
7703;SDS011;3894;49.700;10.770;2022-12-29T04:21:29;3.65;;;0.60;;
7703;SDS011;3894;49.700;10.770;2022-12-29T04:23:55;3.78;;;0.60;;
7703;SDS011;3894;49.700;10.770;2022-12-29T04:26:20;3.40;;;0.60;;
7703;SDS011;3894;49.700;10.770;2022-12-29T04:28:46;4.25;;;0.50;;
7703;SDS011;3894;49.700;10.770;2022-12-29T04:31:11;2.53;;;0.45;;
7703;SDS011;3894;49.700;10.770;2022-12-29T04:33:37;5.57;;;0.60;;
7703;SDS011;3894;49.700;10.770;2022-12-29T04:36:03;2.72;;;0.60;;
7703;SDS011;3894;49.700;10.770;2022-12-29T04:38:28;3.88;;;0.60;;
7703;SDS011;3894;49.700;10.770;2022-12-29T04:40:54;5.25;;;0.75;;
7703;SDS011;3894;49.700;10.770;2022-12-29T04:43:20;2.83;;;0.40;;
7703;SDS011;3894;49.700;10.770;2022-12-29T04:45:46;3.38;;;0.77;;
7703;SDS011;3894;49.700;10.770;2022-12-29T04:48:12;3.53;;;0.70;;
7703;SDS011;3894;49.700;10.770;2022-12-29T04:50:39;3.53;;;0.68;;
7703;SDS011;3894;49.700;10.770;2022-12-29T04:53:05;3.88;;;0.75;;
7703;SDS011;3894;49.700;10.770;2022-12-29T04:55:31;3.92;;;0.73;;
7703;SDS011;3894;49.700;10.770;2022-12-29T04:57:56;4.03;;;0.70;;
7703;SDS011;3894;49.700;10.770;2022-12-29T05:00:22;3.28;;;0.60;;
7703;SDS011;3894;49.700;10.770;2022-12-29T05:02:48;3.05;;;0.40;;
7703;SDS011;3894;49.700;10.770;2022-12-29T05:05:13;3.08;;;0.70;;
7703;SDS011;3894;49.700;10.770;2022-12-29T05:07:39;4.57;;;1.00;;
7703;SDS011;3894;49.700;10.770;2022-12-29T05:10:05;3.20;;;0.70;;
7703;SDS011;3894;49.700;10.770;2022-12-29T05:12:32;3.58;;;0.70;;
7703;SDS011;3894;49.700;10.770;2022-12-29T05:14:58;5.03;;;0.90;;
7703;SDS011;3894;49.700;10.770;2022-12-29T05:17:24;4.07;;;0.93;;
7703;SDS011;3894;49.700;10.770;2022-12-29T05:19:50;3.83;;;0.70;;
7703;SDS011;3894;49.700;10.770;2022-12-29T05:22:16;5.05;;;0.90;;
7703;SDS011;3894;49.700;10.770;2022-12-29T05:24:41;5.20;;;0.80;;
7703;SDS011;3894;49.700;10.770;2022-12-29T05:27:07;2.58;;;0.50;;
7703;SDS011;3894;49.700;10.770;2022-12-29T05:29:32;4.15;;;1.10;;
7703;SDS011;3894;49.700;10.770;2022-12-29T05:31:58;4.07;;;0.88;;
7703;SDS011;3894;49.700;10.770;2022-12-29T05:34:23;3.17;;;0.52;;
7703;SDS011;3894;49.700;10.770;2022-12-29T05:36:50;3.60;;;0.60;;
7703;SDS011;3894;49.700;10.770;2022-12-29T05:39:15;5.35;;;0.50;;
7703;SDS011;3894;49.700;10.770;2022-12-29T05:41:41;3.92;;;0.50;;
7703;SDS011;3894;49.700;10.770;2022-12-29T05:44:06;4.63;;;0.60;;
7703;SDS011;3894;49.700;10.770;2022-12-29T05:46:32;4.15;;;0.43;;
7703;SDS011;3894;49.700;10.770;2022-12-29T05:48:57;3.47;;;0.43;;
7703;SDS011;3894;49.700;10.770;2022-12-29T05:51:23;2.55;;;0.30;;
7703;SDS011;3894;49.700;10.770;2022-12-29T05:53:49;4.63;;;0.57;;
7703;SDS011;3894;49.700;10.770;2022-12-29T05:56:15;3.38;;;0.70;;
7703;SDS011;3894;49.700;10.770;2022-12-29T05:58:41;4.30;;;0.68;;
7703;SDS011;3894;49.700;10.770;2022-12-29T06:01:06;4.60;;;0.80;;
7703;SDS011;3894;49.700;10.770;2022-12-29T06:03:32;4.15;;;0.45;;
7703;SDS011;3894;49.700;10.770;2022-12-29T06:05:57;3.97;;;0.50;;
7703;SDS011;3894;49.700;10.770;2022-12-29T06:08:23;3.85;;;0.73;;
7703;SDS011;3894;49.700;10.770;2022-12-29T06:10:49;4.50;;;0.50;;
7703;SDS011;3894;49.700;10.770;2022-12-29T06:13:14;3.10;;;0.50;;
7703;SDS011;3894;49.700;10.770;2022-12-29T06:15:40;4.32;;;0.50;;
7703;SDS011;3894;49.700;10.770;2022-12-29T06:18:06;3.55;;;0.60;;
7703;SDS011;3894;49.700;10.770;2022-12-29T06:20:31;4.40;;;0.70;;
7703;SDS011;3894;49.700;10.770;2022-12-29T06:22:57;4.13;;;0.65;;
7703;SDS011;3894;49.700;10.770;2022-12-29T06:25:22;4.15;;;1.00;;
7703;SDS011;3894;49.700;10.770;2022-12-29T06:27:48;4.28;;;1.30;;
7703;SDS011;3894;49.700;10.770;2022-12-29T06:30:14;4.18;;;0.50;;
7703;SDS011;3894;49.700;10.770;2022-12-29T06:32:40;3.58;;;0.68;;
7703;SDS011;3894;49.700;10.770;2022-12-29T06:35:05;3.22;;;0.40;;
7703;SDS011;3894;49.700;10.770;2022-12-29T06:37:31;3.30;;;0.68;;
7703;SDS011;3894;49.700;10.770;2022-12-29T06:39:57;3.60;;;0.60;;
7703;SDS011;3894;49.700;10.770;2022-12-29T06:42:23;4.43;;;0.90;;
7703;SDS011;3894;49.700;10.770;2022-12-29T06:44:48;4.47;;;1.17;;
7703;SDS011;3894;49.700;10.770;2022-12-29T06:47:14;3.65;;;0.45;;
7703;SDS011;3894;49.700;10.770;2022-12-29T06:49:40;4.50;;;1.13;;
7703;SDS011;3894;49.700;10.770;2022-12-29T06:52:05;4.15;;;0.57;;
7703;SDS011;3894;49.700;10.770;2022-12-29T06:54:31;2.58;;;0.60;;
7703;SDS011;3894;49.700;10.770;2022-12-29T06:56:56;3.03;;;0.90;;
7703;SDS011;3894;49.700;10.770;2022-12-29T06:59:22;4.45;;;1.27;;
7703;SDS011;3894;49.700;10.770;2022-12-29T07:01:49;4.95;;;0.43;;
7703;SDS011;3894;49.700;10.770;2022-12-29T07:04:14;4.50;;;0.70;;
7703;SDS011;3894;49.700;10.770;2022-12-29T07:06:40;3.22;;;0.60;;
7703;SDS011;3894;49.700;10.770;2022-12-29T07:09:06;4.38;;;0.60;;
7703;SDS011;3894;49.700;10.770;2022-12-29T07:11:32;4.13;;;0.80;;
7703;SDS011;3894;49.700;10.770;2022-12-29T07:13:58;4.13;;;0.98;;
7703;SDS011;3894;49.700;10.770;2022-12-29T07:16:24;5.20;;;0.85;;
7703;SDS011;3894;49.700;10.770;2022-12-29T07:18:49;2.58;;;0.30;;
7703;SDS011;3894;49.700;10.770;2022-12-29T07:21:16;6.30;;;0.75;;
7703;SDS011;3894;49.700;10.770;2022-12-29T07:23:42;4.45;;;0.60;;
7703;SDS011;3894;49.700;10.770;2022-12-29T07:26:08;3.45;;;0.57;;
7703;SDS011;3894;49.700;10.770;2022-12-29T07:28:36;3.47;;;0.50;;
7703;SDS011;3894;49.700;10.770;2022-12-29T07:31:06;3.38;;;0.70;;
7703;SDS011;3894;49.700;10.770;2022-12-29T07:33:42;3.28;;;0.88;;
7703;SDS011;3894;49.700;10.770;2022-12-29T07:36:08;3.55;;;0.68;;
7703;SDS011;3894;49.700;10.770;2022-12-29T07:38:34;3.70;;;1.10;;
7703;SDS011;3894;49.700;10.770;2022-12-29T07:41:00;6.38;;;0.70;;
7703;SDS011;3894;49.700;10.770;2022-12-29T07:43:26;4.20;;;0.77;;
7703;SDS011;3894;49.700;10.770;2022-12-29T07:45:51;5.07;;;0.90;;
7703;SDS011;3894;49.700;10.770;2022-12-29T07:48:17;3.60;;;0.77;;
7703;SDS011;3894;49.700;10.770;2022-12-29T07:50:43;4.25;;;0.93;;
7703;SDS011;3894;49.700;10.770;2022-12-29T07:53:08;4.57;;;0.75;;
7703;SDS011;3894;49.700;10.770;2022-12-29T07:55:34;4.15;;;0.70;;
7703;SDS011;3894;49.700;10.770;2022-12-29T07:57:59;4.50;;;0.85;;
7703;SDS011;3894;49.700;10.770;2022-12-29T08:00:28;5.20;;;1.30;;
7703;SDS011;3894;49.700;10.770;2022-12-29T08:02:54;4.20;;;0.52;;
7703;SDS011;3894;49.700;10.770;2022-12-29T08:05:20;4.40;;;0.90;;
7703;SDS011;3894;49.700;10.770;2022-12-29T08:07:46;3.97;;;0.73;;
7703;SDS011;3894;49.700;10.770;2022-12-29T08:10:12;4.57;;;0.85;;
7703;SDS011;3894;49.700;10.770;2022-12-29T08:12:39;4.00;;;1.02;;
7703;SDS011;3894;49.700;10.770;2022-12-29T08:15:10;3.28;;;0.50;;
7703;SDS011;3894;49.700;10.770;2022-12-29T08:17:37;3.63;;;0.65;;
7703;SDS011;3894;49.700;10.770;2022-12-29T08:20:03;4.28;;;0.70;;
7703;SDS011;3894;49.700;10.770;2022-12-29T08:22:29;3.15;;;0.50;;
7703;SDS011;3894;49.700;10.770;2022-12-29T08:24:55;5.43;;;0.98;;
7703;SDS011;3894;49.700;10.770;2022-12-29T08:27:20;4.78;;;0.75;;
7703;SDS011;3894;49.700;10.770;2022-12-29T08:29:46;3.15;;;0.60;;
7703;SDS011;3894;49.700;10.770;2022-12-29T08:32:12;4.90;;;0.60;;
7703;SDS011;3894;49.700;10.770;2022-12-29T08:34:38;3.38;;;0.73;;
7703;SDS011;3894;49.700;10.770;2022-12-29T08:37:03;3.38;;;0.60;;
7703;SDS011;3894;49.700;10.770;2022-12-29T08:39:29;3.72;;;0.63;;
7703;SDS011;3894;49.700;10.770;2022-12-29T08:41:55;3.70;;;0.80;;
7703;SDS011;3894;49.700;10.770;2022-12-29T08:44:20;4.03;;;0.73;;
7703;SDS011;3894;49.700;10.770;2022-12-29T08:46:46;3.38;;;0.43;;
7703;SDS011;3894;49.700;10.770;2022-12-29T08:49:12;4.03;;;0.75;;
7703;SDS011;3894;49.700;10.770;2022-12-29T08:51:37;4.30;;;0.80;;
7703;SDS011;3894;49.700;10.770;2022-12-29T08:54:03;3.70;;;0.70;;
7703;SDS011;3894;49.700;10.770;2022-12-29T08:56:29;4.05;;;1.15;;
7703;SDS011;3894;49.700;10.770;2022-12-29T08:58:54;5.72;;;0.57;;
7703;SDS011;3894;49.700;10.770;2022-12-29T09:01:20;2.53;;;0.45;;
7703;SDS011;3894;49.700;10.770;2022-12-29T09:03:46;2.90;;;0.60;;
7703;SDS011;3894;49.700;10.770;2022-12-29T09:06:12;2.78;;;0.57;;
7703;SDS011;3894;49.700;10.770;2022-12-29T09:08:38;3.70;;;0.70;;
7703;SDS011;3894;49.700;10.770;2022-12-29T09:11:08;2.58;;;0.50;;
7703;SDS011;3894;49.700;10.770;2022-12-29T09:13:35;3.13;;;0.73;;
7703;SDS011;3894;49.700;10.770;2022-12-29T09:16:01;4.55;;;0.90;;
7703;SDS011;3894;49.700;10.770;2022-12-29T09:18:27;3.60;;;0.68;;
7703;SDS011;3894;49.700;10.770;2022-12-29T09:20:57;6.35;;;0.93;;
7703;SDS011;3894;49.700;10.770;2022-12-29T09:23:23;4.93;;;0.95;;
7703;SDS011;3894;49.700;10.770;2022-12-29T09:25:49;3.53;;;0.68;;
7703;SDS011;3894;49.700;10.770;2022-12-29T09:28:15;2.80;;;0.57;;
7703;SDS011;3894;49.700;10.770;2022-12-29T09:30:41;3.22;;;0.75;;
7703;SDS011;3894;49.700;10.770;2022-12-29T09:33:06;2.95;;;0.47;;
7703;SDS011;3894;49.700;10.770;2022-12-29T09:35:32;3.10;;;0.60;;
7703;SDS011;3894;49.700;10.770;2022-12-29T09:37:58;4.35;;;0.60;;
7703;SDS011;3894;49.700;10.770;2022-12-29T09:40:25;4.38;;;0.82;;
7703;SDS011;3894;49.700;10.770;2022-12-29T09:48:45;3.75;;;0.95;;
7703;SDS011;3894;49.700;10.770;2022-12-29T09:51:17;4.25;;;0.90;;
7703;SDS011;3894;49.700;10.770;2022-12-29T09:53:52;5.88;;;1.17;;
7703;SDS011;3894;49.700;10.770;2022-12-29T09:56:23;3.95;;;0.95;;
7703;SDS011;3894;49.700;10.770;2022-12-29T10:01:28;5.40;;;1.85;;
7703;SDS011;3894;49.700;10.770;2022-12-29T10:04:06;6.88;;;1.90;;
7703;SDS011;3894;49.700;10.770;2022-12-29T10:25:18;3.47;;;0.82;;
7703;SDS011;3894;49.700;10.770;2022-12-29T10:27:48;6.35;;;1.35;;
7703;SDS011;3894;49.700;10.770;2022-12-29T10:30:16;5.35;;;1.98;;
7703;SDS011;3894;49.700;10.770;2022-12-29T10:32:45;5.40;;;1.70;;
7703;SDS011;3894;49.700;10.770;2022-12-29T10:35:24;4.63;;;1.25;;
7703;SDS011;3894;49.700;10.770;2022-12-29T10:40:50;4.80;;;1.35;;
7703;SDS011;3894;49.700;10.770;2022-12-29T10:43:32;4.95;;;1.48;;
7703;SDS011;3894;49.700;10.770;2022-12-29T10:46:03;4.47;;;1.10;;
7703;SDS011;3894;49.700;10.770;2022-12-29T10:48:34;3.65;;;0.93;;
7703;SDS011;3894;49.700;10.770;2022-12-29T10:51:07;4.95;;;1.00;;
7703;SDS011;3894;49.700;10.770;2022-12-29T10:53:40;4.90;;;0.77;;
7703;SDS011;3894;49.700;10.770;2022-12-29T10:56:15;4.63;;;1.02;;
7703;SDS011;3894;49.700;10.770;2022-12-29T10:58:54;4.07;;;0.85;;
7703;SDS011;3894;49.700;10.770;2022-12-29T11:01:26;5.30;;;1.52;;
7703;SDS011;3894;49.700;10.770;2022-12-29T11:04:15;5.03;;;0.85;;
7703;SDS011;3894;49.700;10.770;2022-12-29T11:07:14;4.88;;;0.90;;
7703;SDS011;3894;49.700;10.770;2022-12-29T11:09:42;7.15;;;2.15;;
7703;SDS011;3894;49.700;10.770;2022-12-29T11:12:22;5.07;;;1.30;;
7703;SDS011;3894;49.700;10.770;2022-12-29T11:20:37;5.38;;;1.95;;
7703;SDS011;3894;49.700;10.770;2022-12-29T11:23:21;7.07;;;1.88;;
7703;SDS011;3894;49.700;10.770;2022-12-29T11:28:37;5.90;;;1.88;;
7703;SDS011;3894;49.700;10.770;2022-12-29T11:31:05;6.50;;;2.58;;
7703;SDS011;3894;49.700;10.770;2022-12-29T11:33:32;9.02;;;3.95;;
7703;SDS011;3894;49.700;10.770;2022-12-29T11:38:37;5.75;;;1.88;;
7703;SDS011;3894;49.700;10.770;2022-12-29T11:41:22;8.35;;;3.08;;
7703;SDS011;3894;49.700;10.770;2022-12-29T11:43:51;7.47;;;2.67;;
7703;SDS011;3894;49.700;10.770;2022-12-29T11:46:22;5.55;;;1.60;;
7703;SDS011;3894;49.700;10.770;2022-12-29T11:48:51;5.97;;;1.50;;
7703;SDS011;3894;49.700;10.770;2022-12-29T11:51:23;4.85;;;1.50;;
7703;SDS011;3894;49.700;10.770;2022-12-29T11:53:53;7.90;;;3.97;;
7703;SDS011;3894;49.700;10.770;2022-12-29T11:56:32;5.57;;;1.90;;
7703;SDS011;3894;49.700;10.770;2022-12-29T12:01:50;5.68;;;1.42;;
7703;SDS011;3894;49.700;10.770;2022-12-29T12:04:17;5.55;;;1.38;;
7703;SDS011;3894;49.700;10.770;2022-12-29T12:06:48;3.83;;;1.02;;
7703;SDS011;3894;49.700;10.770;2022-12-29T12:09:27;5.13;;;1.63;;
7703;SDS011;3894;49.700;10.770;2022-12-29T12:11:57;4.53;;;0.90;;
7703;SDS011;3894;49.700;10.770;2022-12-29T12:14:27;6.50;;;1.75;;
7703;SDS011;3894;49.700;10.770;2022-12-29T12:17:16;4.80;;;1.10;;
7703;SDS011;3894;49.700;10.770;2022-12-29T12:19:48;5.82;;;1.95;;
7703;SDS011;3894;49.700;10.770;2022-12-29T12:22:27;6.65;;;2.88;;
7703;SDS011;3894;49.700;10.770;2022-12-29T12:25:17;6.40;;;1.58;;
7703;SDS011;3894;49.700;10.770;2022-12-29T12:27:51;4.78;;;1.50;;
7703;SDS011;3894;49.700;10.770;2022-12-29T12:30:19;5.25;;;1.20;;
7703;SDS011;3894;49.700;10.770;2022-12-29T12:32:59;7.78;;;2.30;;
7703;SDS011;3894;49.700;10.770;2022-12-29T12:41:17;8.65;;;2.10;;
7703;SDS011;3894;49.700;10.770;2022-12-29T12:43:55;5.50;;;1.83;;
7703;SDS011;3894;49.700;10.770;2022-12-29T12:52:25;8.23;;;3.10;;
7703;SDS011;3894;49.700;10.770;2022-12-29T13:09:03;9.57;;;2.85;;
7703;SDS011;3894;49.700;10.770;2022-12-29T13:17:40;4.93;;;1.92;;
7703;SDS011;3894;49.700;10.770;2022-12-29T13:23:10;11.55;;;6.05;;
7703;SDS011;3894;49.700;10.770;2022-12-29T13:26:31;9.60;;;3.17;;
7703;SDS011;3894;49.700;10.770;2022-12-29T13:28:40;17.90;;;8.25;;
7703;SDS011;3894;49.700;10.770;2022-12-29T13:31:20;27.40;;;8.95;;
7703;SDS011;3894;49.700;10.770;2022-12-29T13:36:56;26.65;;;8.68;;
7703;SDS011;3894;49.700;10.770;2022-12-29T13:39:31;8.93;;;3.15;;
7703;SDS011;3894;49.700;10.770;2022-12-29T13:42:07;19.48;;;5.47;;
7703;SDS011;3894;49.700;10.770;2022-12-29T13:44:39;12.25;;;4.18;;
7703;SDS011;3894;49.700;10.770;2022-12-29T13:47:24;10.48;;;4.28;;
7703;SDS011;3894;49.700;10.770;2022-12-29T13:49:56;8.05;;;2.00;;
7703;SDS011;3894;49.700;10.770;2022-12-29T13:52:38;14.95;;;4.25;;
7703;SDS011;3894;49.700;10.770;2022-12-29T13:57:45;10.07;;;3.70;;
7703;SDS011;3894;49.700;10.770;2022-12-29T14:00:20;11.25;;;3.63;;
7703;SDS011;3894;49.700;10.770;2022-12-29T14:02:59;9.55;;;3.58;;
7703;SDS011;3894;49.700;10.770;2022-12-29T14:06:02;13.60;;;3.92;;
7703;SDS011;3894;49.700;10.770;2022-12-29T14:08:47;6.88;;;2.15;;
7703;SDS011;3894;49.700;10.770;2022-12-29T14:11:15;9.75;;;3.80;;
7703;SDS011;3894;49.700;10.770;2022-12-29T14:13:43;11.82;;;4.93;;
7703;SDS011;3894;49.700;10.770;2022-12-29T14:16:27;10.00;;;4.65;;
7703;SDS011;3894;49.700;10.770;2022-12-29T14:18:53;12.88;;;5.05;;
7703;SDS011;3894;49.700;10.770;2022-12-29T14:21:22;13.63;;;5.38;;
7703;SDS011;3894;49.700;10.770;2022-12-29T14:23:53;13.18;;;6.95;;
7703;SDS011;3894;49.700;10.770;2022-12-29T14:28:57;14.57;;;5.55;;
7703;SDS011;3894;49.700;10.770;2022-12-29T14:31:46;17.25;;;6.18;;
7703;SDS011;3894;49.700;10.770;2022-12-29T14:36:38;11.98;;;6.10;;
7703;SDS011;3894;49.700;10.770;2022-12-29T14:39:32;11.38;;;5.32;;
7703;SDS011;3894;49.700;10.770;2022-12-29T14:44:45;13.13;;;5.05;;
7703;SDS011;3894;49.700;10.770;2022-12-29T14:49:57;6.72;;;3.00;;
7703;SDS011;3894;49.700;10.770;2022-12-29T14:52:44;7.53;;;3.45;;
7703;SDS011;3894;49.700;10.770;2022-12-29T14:58:15;11.25;;;4.95;;
7703;SDS011;3894;49.700;10.770;2022-12-29T15:00:48;17.73;;;7.68;;
7703;SDS011;3894;49.700;10.770;2022-12-29T15:03:24;14.30;;;6.60;;
7703;SDS011;3894;49.700;10.770;2022-12-29T15:08:29;10.23;;;5.93;;
7703;SDS011;3894;49.700;10.770;2022-12-29T15:13:36;6.85;;;4.45;;
7703;SDS011;3894;49.700;10.770;2022-12-29T15:16:04;6.32;;;2.33;;
7703;SDS011;3894;49.700;10.770;2022-12-29T15:18:45;8.95;;;4.68;;
7703;SDS011;3894;49.700;10.770;2022-12-29T15:21:11;7.53;;;4.50;;
7703;SDS011;3894;49.700;10.770;2022-12-29T15:23:39;6.50;;;2.17;;
7703;SDS011;3894;49.700;10.770;2022-12-29T15:26:08;4.75;;;1.92;;
7703;SDS011;3894;49.700;10.770;2022-12-29T15:28:38;9.43;;;2.05;;
7703;SDS011;3894;49.700;10.770;2022-12-29T15:31:10;6.07;;;1.90;;
7703;SDS011;3894;49.700;10.770;2022-12-29T15:33:41;7.88;;;2.42;;
7703;SDS011;3894;49.700;10.770;2022-12-29T15:36:10;17.85;;;6.70;;
7703;SDS011;3894;49.700;10.770;2022-12-29T15:38:38;13.70;;;5.07;;
7703;SDS011;3894;49.700;10.770;2022-12-29T15:41:15;10.15;;;4.40;;
7703;SDS011;3894;49.700;10.770;2022-12-29T15:44:04;9.63;;;3.47;;
7703;SDS011;3894;49.700;10.770;2022-12-29T15:46:31;28.48;;;9.45;;
7703;SDS011;3894;49.700;10.770;2022-12-29T15:48:57;17.15;;;7.28;;
7703;SDS011;3894;49.700;10.770;2022-12-29T15:51:26;25.65;;;9.02;;
7703;SDS011;3894;49.700;10.770;2022-12-29T15:53:55;39.78;;;13.60;;
7703;SDS011;3894;49.700;10.770;2022-12-29T15:56:22;25.17;;;9.65;;
7703;SDS011;3894;49.700;10.770;2022-12-29T15:58:49;35.25;;;10.38;;
7703;SDS011;3894;49.700;10.770;2022-12-29T16:01:32;13.10;;;4.55;;
7703;SDS011;3894;49.700;10.770;2022-12-29T16:03:59;11.82;;;4.57;;
7703;SDS011;3894;49.700;10.770;2022-12-29T16:06:33;14.85;;;4.82;;
7703;SDS011;3894;49.700;10.770;2022-12-29T16:11:38;15.35;;;7.18;;
7703;SDS011;3894;49.700;10.770;2022-12-29T16:14:09;10.07;;;4.18;;
7703;SDS011;3894;49.700;10.770;2022-12-29T16:16:42;9.43;;;3.75;;
7703;SDS011;3894;49.700;10.770;2022-12-29T16:19:28;8.50;;;4.30;;
7703;SDS011;3894;49.700;10.770;2022-12-29T16:21:54;12.27;;;7.05;;
7703;SDS011;3894;49.700;10.770;2022-12-29T16:24:23;13.52;;;7.30;;
7703;SDS011;3894;49.700;10.770;2022-12-29T16:27:02;13.90;;;8.13;;
7703;SDS011;3894;49.700;10.770;2022-12-29T16:29:33;17.42;;;7.78;;
7703;SDS011;3894;49.700;10.770;2022-12-29T16:32:00;11.68;;;5.47;;
7703;SDS011;3894;49.700;10.770;2022-12-29T16:34:47;11.98;;;5.63;;
7703;SDS011;3894;49.700;10.770;2022-12-29T16:37:32;8.27;;;3.28;;
7703;SDS011;3894;49.700;10.770;2022-12-29T16:40:20;15.20;;;8.52;;
7703;SDS011;3894;49.700;10.770;2022-12-29T16:42:59;8.45;;;4.03;;
7703;SDS011;3894;49.700;10.770;2022-12-29T16:50:38;6.00;;;1.55;;
7703;SDS011;3894;49.700;10.770;2022-12-29T16:53:27;4.32;;;0.65;;
7703;SDS011;3894;49.700;10.770;2022-12-29T16:55:56;4.47;;;0.55;;
7703;SDS011;3894;49.700;10.770;2022-12-29T16:58:26;2.63;;;0.70;;
7703;SDS011;3894;49.700;10.770;2022-12-29T17:00:56;3.78;;;0.63;;
7703;SDS011;3894;49.700;10.770;2022-12-29T17:03:24;3.40;;;0.80;;
7703;SDS011;3894;49.700;10.770;2022-12-29T17:06:00;3.33;;;0.60;;
7703;SDS011;3894;49.700;10.770;2022-12-29T17:08:25;11.85;;;6.25;;
7703;SDS011;3894;49.700;10.770;2022-12-29T17:10:52;6.85;;;2.03;;
7703;SDS011;3894;49.700;10.770;2022-12-29T17:13:39;4.60;;;1.02;;
7703;SDS011;3894;49.700;10.770;2022-12-29T17:16:05;4.90;;;1.60;;
7703;SDS011;3894;49.700;10.770;2022-12-29T17:18:33;6.53;;;1.30;;
7703;SDS011;3894;49.700;10.770;2022-12-29T17:20:58;5.93;;;1.50;;
7703;SDS011;3894;49.700;10.770;2022-12-29T17:23:24;17.33;;;6.05;;
7703;SDS011;3894;49.700;10.770;2022-12-29T17:25:50;20.38;;;7.97;;
7703;SDS011;3894;49.700;10.770;2022-12-29T17:28:18;25.05;;;8.75;;
7703;SDS011;3894;49.700;10.770;2022-12-29T17:30:57;16.02;;;5.75;;
7703;SDS011;3894;49.700;10.770;2022-12-29T17:33:25;10.20;;;3.53;;
7703;SDS011;3894;49.700;10.770;2022-12-29T17:35:52;5.60;;;2.10;;
7703;SDS011;3894;49.700;10.770;2022-12-29T17:40:47;6.40;;;1.88;;
7703;SDS011;3894;49.700;10.770;2022-12-29T17:43:14;5.55;;;1.10;;
7703;SDS011;3894;49.700;10.770;2022-12-29T17:45:40;12.75;;;4.95;;
7703;SDS011;3894;49.700;10.770;2022-12-29T17:48:10;8.60;;;4.22;;
7703;SDS011;3894;49.700;10.770;2022-12-29T17:50:37;12.50;;;6.50;;